createdAt,value
2017-06-24T00:02:09.007Z,20.50
2017-06-24T00:04:36.498Z,20.60
2017-06-24T00:07:03.995Z,20.60
2017-06-24T00:09:31.478Z,20.50
2017-06-24T00:11:59.233Z,20.50
2017-06-24T00:14:26.701Z,20.70
2017-06-24T00:16:54.201Z,20.60
2017-06-24T00:19:21.710Z,20.50
2017-06-24T00:21:49.214Z,20.20
2017-06-24T00:24:17.030Z,20.40
2017-06-24T00:26:44.516Z,20.40
2017-06-24T00:29:11.998Z,20.40
2017-06-24T00:31:39.501Z,20.30
2017-06-24T00:34:07.747Z,20.40
2017-06-24T00:36:35.537Z,20.40
2017-06-24T00:39:03.027Z,20.00
2017-06-24T00:41:30.509Z,20.00
2017-06-24T00:43:57.993Z,20.00
2017-06-24T00:46:25.482Z,19.90
2017-06-24T00:48:53.242Z,19.90
2017-06-24T00:51:21.482Z,19.70
2017-06-24T00:53:48.969Z,19.80
2017-06-24T00:56:17.221Z,19.90
2017-06-24T00:58:44.710Z,19.90
2017-06-24T01:01:12.481Z,19.70
2017-06-24T01:03:40.743Z,19.60
2017-06-24T01:06:08.986Z,19.30
2017-06-24T01:08:36.482Z,19.30
2017-06-24T01:11:03.957Z,19.90
2017-06-24T01:13:31.749Z,20.10
2017-06-24T01:15:59.224Z,20.10
2017-06-24T01:18:26.698Z,20.10
2017-06-24T01:20:54.199Z,19.80
2017-06-24T01:23:21.687Z,19.80
2017-06-24T01:25:49.529Z,20.00
2017-06-24T01:28:17.020Z,20.00
2017-06-24T01:30:44.504Z,20.20
2017-06-24T01:33:12.006Z,20.30
2017-06-24T01:35:39.485Z,20.30
2017-06-24T01:38:07.252Z,19.90
2017-06-24T01:40:34.733Z,19.80
2017-06-24T01:43:02.213Z,19.80
2017-06-24T01:45:29.719Z,19.80
2017-06-24T01:47:57.209Z,19.70
2017-06-24T01:50:24.953Z,19.50
2017-06-24T01:52:52.439Z,19.50
2017-06-24T01:55:19.934Z,19.40
2017-06-24T01:57:48.200Z,19.20
2017-06-24T02:00:15.694Z,19.10
2017-06-24T02:02:43.466Z,19.10
2017-06-24T02:05:10.954Z,19.00
2017-06-24T02:07:38.445Z,18.90
2017-06-24T02:10:05.929Z,18.90
2017-06-24T02:12:34.541Z,19.00
2017-06-24T02:15:02.296Z,19.00
2017-06-24T02:17:29.776Z,19.00
2017-06-24T02:19:57.248Z,19.00
2017-06-24T02:22:24.738Z,18.90
2017-06-24T02:24:52.989Z,18.90
2017-06-24T02:27:20.749Z,18.80
2017-06-24T02:29:48.224Z,19.00
2017-06-24T02:32:15.705Z,19.00
2017-06-24T02:34:43.217Z,19.00
2017-06-24T02:37:10.692Z,19.30
2017-06-24T02:39:38.451Z,19.20
2017-06-24T02:42:05.928Z,19.00
2017-06-24T02:44:33.401Z,19.10
2017-06-24T02:47:00.890Z,19.10
2017-06-24T02:49:28.370Z,19.40
2017-06-24T02:51:56.192Z,19.20
2017-06-24T02:54:23.712Z,19.40
2017-06-24T02:56:51.185Z,19.40
2017-06-24T02:59:18.683Z,19.30
2017-06-24T03:01:46.158Z,19.40
2017-06-24T03:04:14.029Z,19.20
2017-06-24T03:06:41.505Z,19.50
2017-06-24T03:09:08.986Z,19.20
2017-06-24T03:11:36.498Z,19.40
2017-06-24T03:14:03.983Z,18.90
2017-06-24T03:16:31.746Z,19.20
2017-06-24T03:18:59.242Z,19.40
2017-06-24T03:21:27.601Z,19.30
2017-06-24T03:23:55.083Z,19.30
2017-06-24T03:26:23.361Z,19.30
2017-06-24T03:28:51.882Z,19.40
2017-06-24T03:31:19.361Z,19.40
2017-06-24T03:33:46.844Z,19.20
2017-06-24T03:36:14.359Z,19.20
2017-06-24T03:38:41.852Z,19.30
2017-06-24T03:41:09.613Z,19.30
2017-06-24T03:43:37.086Z,19.00
2017-06-24T03:46:05.341Z,19.00
2017-06-24T03:48:33.959Z,18.70
2017-06-24T03:51:02.572Z,18.80
2017-06-24T03:53:30.065Z,18.80
2017-06-24T03:55:57.552Z,19.00
2017-06-24T03:58:26.098Z,19.30
2017-06-24T04:00:53.572Z,19.30
2017-06-24T04:03:21.061Z,19.00
2017-06-24T04:05:49.321Z,19.30
2017-06-24T04:08:16.796Z,19.20
2017-06-24T04:10:45.392Z,19.20
2017-06-24T04:13:12.877Z,19.10
2017-06-24T04:15:40.349Z,19.20
2017-06-24T04:18:07.844Z,19.30
2017-06-24T04:20:35.321Z,19.30
2017-06-24T04:23:03.577Z,19.20
2017-06-24T04:25:31.345Z,19.20
2017-06-24T04:27:58.813Z,19.10
2017-06-24T04:30:26.308Z,19.10
2017-06-24T04:32:54.063Z,19.00
2017-06-24T04:35:21.544Z,19.00
2017-06-24T04:37:49.033Z,19.10
2017-06-24T04:40:16.537Z,19.20
2017-06-24T04:42:44.013Z,19.00
2017-06-24T04:45:11.779Z,19.10
2017-06-24T04:47:39.262Z,19.10
2017-06-24T04:50:06.744Z,18.70
2017-06-24T04:52:34.233Z,19.20
2017-06-24T04:55:01.745Z,19.00
2017-06-24T04:57:29.541Z,19.10
2017-06-24T04:59:57.017Z,19.00
2017-06-24T05:02:24.506Z,18.90
2017-06-24T05:04:51.992Z,19.00
2017-06-24T05:07:19.465Z,18.60
2017-06-24T05:09:48.066Z,19.20
2017-06-24T05:12:16.316Z,19.20
2017-06-24T05:14:43.789Z,19.10
2017-06-24T05:17:12.054Z,19.10
2017-06-24T05:19:39.535Z,19.10
2017-06-24T05:22:08.046Z,19.40
2017-06-24T05:24:35.537Z,19.30
2017-06-24T05:27:03.013Z,19.30
2017-06-24T05:29:30.501Z,19.30
2017-06-24T05:31:57.989Z,19.30
2017-06-24T05:34:25.774Z,19.10
2017-06-24T05:36:53.267Z,18.80
2017-06-24T05:39:21.504Z,19.10
2017-06-24T05:41:48.989Z,19.10
2017-06-24T05:44:16.474Z,19.00
2017-06-24T05:46:44.729Z,18.90
2017-06-24T05:49:12.223Z,18.80
2017-06-24T05:51:40.033Z,19.20
2017-06-24T05:54:07.520Z,19.40
2017-06-24T05:56:35.785Z,19.30
2017-06-24T05:59:03.317Z,19.30
2017-06-24T06:01:30.793Z,18.80
2017-06-24T06:03:58.546Z,19.30
2017-06-24T06:06:26.025Z,19.40
2017-06-24T06:08:53.536Z,19.40
2017-06-24T06:11:21.016Z,19.20
2017-06-24T06:13:48.498Z,19.20
2017-06-24T06:16:16.302Z,19.80
2017-06-24T06:18:43.794Z,19.70
2017-06-24T06:21:11.282Z,20.00
2017-06-24T06:23:38.780Z,19.60
2017-06-24T06:26:06.251Z,19.40
2017-06-24T06:28:34.023Z,19.30
2017-06-24T06:31:01.497Z,19.20
2017-06-24T06:33:28.977Z,18.80
2017-06-24T06:35:56.469Z,19.00
2017-06-24T06:38:24.709Z,19.10
2017-06-24T06:40:52.512Z,19.10
2017-06-24T06:43:20.821Z,18.80
2017-06-24T06:45:48.320Z,18.70
2017-06-24T06:48:15.810Z,18.50
2017-06-24T06:50:44.057Z,18.90
2017-06-24T06:53:11.826Z,18.90
2017-06-24T06:55:39.309Z,19.20
2017-06-24T06:58:07.561Z,19.20
2017-06-24T07:00:35.045Z,19.20
2017-06-24T07:03:03.397Z,19.00
2017-06-24T07:05:31.170Z,19.00
2017-06-24T07:07:58.641Z,19.40
2017-06-24T07:10:26.114Z,19.80
2017-06-24T07:12:53.602Z,19.60
2017-06-24T07:15:21.099Z,19.80
2017-06-24T07:17:48.890Z,19.40
2017-06-24T07:20:17.137Z,19.90
2017-06-24T07:22:44.649Z,19.90
2017-06-24T07:25:12.145Z,19.90
2017-06-24T07:27:39.644Z,19.60
2017-06-24T07:30:07.418Z,19.50
2017-06-24T07:32:34.899Z,19.90
2017-06-24T07:35:02.394Z,19.50
2017-06-24T07:37:29.902Z,19.90
2017-06-24T07:39:57.403Z,19.50
2017-06-24T07:42:25.161Z,19.30
2017-06-24T07:44:52.637Z,19.30
2017-06-24T07:47:20.115Z,19.80
2017-06-24T07:49:47.622Z,19.70
2017-06-24T07:52:15.121Z,19.70
2017-06-24T07:54:42.884Z,19.90
2017-06-24T07:57:10.380Z,19.90
2017-06-24T07:59:38.783Z,19.80
2017-06-24T08:02:06.294Z,19.80
2017-06-24T08:04:33.773Z,19.70
2017-06-24T08:07:01.543Z,19.70
2017-06-24T08:09:29.027Z,19.70
2017-06-24T08:11:56.522Z,19.50
2017-06-24T08:14:24.011Z,19.70
2017-06-24T08:16:51.484Z,19.70
2017-06-24T08:19:19.333Z,19.50
2017-06-24T08:21:46.825Z,20.10
2017-06-24T08:24:14.306Z,19.80
2017-06-24T08:26:41.797Z,19.70
2017-06-24T08:29:10.042Z,19.90
2017-06-24T08:31:37.869Z,19.90
2017-06-24T08:34:05.362Z,19.90
2017-06-24T08:36:32.840Z,19.90
2017-06-24T08:39:00.335Z,19.80
2017-06-24T08:41:27.814Z,19.80
2017-06-24T08:43:55.606Z,19.80
2017-06-24T08:46:23.105Z,19.70
2017-06-24T08:48:50.578Z,19.90
2017-06-24T08:51:18.077Z,20.00
2017-06-24T08:53:45.567Z,19.80
2017-06-24T08:56:13.354Z,20.20
2017-06-24T08:58:41.622Z,20.80
2017-06-24T09:01:09.112Z,20.80
2017-06-24T09:03:36.614Z,20.60
2017-06-24T09:06:04.109Z,20.90
2017-06-24T09:08:31.969Z,20.50
2017-06-24T09:10:59.468Z,20.90
2017-06-24T09:13:26.978Z,21.10
2017-06-24T09:15:54.472Z,21.50
2017-06-24T09:18:21.968Z,21.50
2017-06-24T09:20:49.735Z,21.30
2017-06-24T09:23:17.250Z,21.30
2017-06-24T09:25:44.759Z,21.20
2017-06-24T09:28:12.281Z,21.70
2017-06-24T09:30:41.878Z,21.80
2017-06-24T09:33:09.737Z,21.50
2017-06-24T09:35:37.238Z,21.30
2017-06-24T09:38:04.727Z,22.00
2017-06-24T09:40:32.243Z,21.40
2017-06-24T09:42:59.746Z,21.50
2017-06-24T09:45:27.542Z,21.00
2017-06-24T09:47:55.042Z,20.80
2017-06-24T09:50:22.531Z,21.20
2017-06-24T09:52:50.288Z,21.20
2017-06-24T09:55:17.786Z,21.70
2017-06-24T09:57:45.294Z,22.00
2017-06-24T10:00:13.085Z,21.40
2017-06-24T10:02:41.347Z,21.70
2017-06-24T10:05:08.834Z,21.60
2017-06-24T10:07:37.417Z,21.30
2017-06-24T10:10:04.932Z,21.30
2017-06-24T10:12:33.551Z,21.20
2017-06-24T10:15:01.346Z,21.10
2017-06-24T10:17:28.833Z,21.00
2017-06-24T10:19:56.330Z,21.40
2017-06-24T10:22:24.098Z,21.50
2017-06-24T10:24:51.586Z,21.30
2017-06-24T10:27:19.070Z,21.80
2017-06-24T10:29:46.900Z,21.80
2017-06-24T10:32:15.159Z,22.20
2017-06-24T10:34:42.649Z,22.20
2017-06-24T10:37:10.153Z,21.90
2017-06-24T10:39:38.438Z,22.30
2017-06-24T10:42:06.234Z,22.50
2017-06-24T10:44:34.480Z,22.30
2017-06-24T10:47:03.117Z,22.20
2017-06-24T10:49:30.610Z,22.20
2017-06-24T10:51:58.109Z,22.50
2017-06-24T10:54:25.609Z,21.70
2017-06-24T10:56:53.107Z,22.00
2017-06-24T10:59:20.615Z,22.00
2017-06-24T11:01:48.384Z,22.20
2017-06-24T11:04:15.866Z,22.20
2017-06-24T11:06:43.352Z,22.00
2017-06-24T11:09:10.854Z,22.20
2017-06-24T11:11:38.339Z,22.30
2017-06-24T11:14:06.133Z,21.80
2017-06-24T11:16:33.629Z,21.60
2017-06-24T11:19:01.130Z,22.10
2017-06-24T11:21:28.630Z,22.20
2017-06-24T11:23:56.123Z,22.30
2017-06-24T11:26:23.982Z,22.10
2017-06-24T11:28:51.491Z,22.50
2017-06-24T11:31:18.978Z,22.90
2017-06-24T11:33:46.490Z,23.10
2017-06-24T11:36:13.976Z,23.00
2017-06-24T11:38:41.739Z,22.60
2017-06-24T11:41:09.250Z,22.20
2017-06-24T11:43:36.759Z,22.00
2017-06-24T11:46:04.257Z,22.00
2017-06-24T11:48:31.743Z,21.30
2017-06-24T11:50:59.577Z,21.80
2017-06-24T11:53:27.068Z,22.00
2017-06-24T11:55:54.549Z,22.10
2017-06-24T11:58:22.045Z,22.50
2017-06-24T12:00:49.535Z,22.60
2017-06-24T12:03:17.292Z,22.50
2017-06-24T12:05:44.770Z,23.10
2017-06-24T12:08:13.401Z,22.30
2017-06-24T12:10:41.746Z,22.30
2017-06-24T12:13:09.217Z,22.20
2017-06-24T12:15:37.026Z,22.10
2017-06-24T12:18:04.512Z,21.90
2017-06-24T12:20:32.008Z,22.00
2017-06-24T12:22:59.506Z,22.10
2017-06-24T12:25:26.995Z,22.20
2017-06-24T12:27:54.752Z,22.70
2017-06-24T12:30:22.241Z,22.90
2017-06-24T12:32:49.745Z,22.90
2017-06-24T12:35:17.261Z,23.70
